sensor_id;sensor_type;location;lat;lon;timestamp;P1;durP1;ratioP1;P2;durP2;ratioP2
5819;SDS011;2936;47.348;9.640;2024-01-30T00:00:51;16.55;;;11.13;;
5819;SDS011;2936;47.348;9.640;2024-01-30T00:03:18;16.00;;;11.43;;
5819;SDS011;2936;47.348;9.640;2024-01-30T00:05:46;24.35;;;10.82;;
5819;SDS011;2936;47.348;9.640;2024-01-30T00:08:14;16.20;;;10.30;;
5819;SDS011;2936;47.348;9.640;2024-01-30T00:10:42;24.30;;;11.02;;
5819;SDS011;2936;47.348;9.640;2024-01-30T00:13:10;34.88;;;11.02;;
5819;SDS011;2936;47.348;9.640;2024-01-30T00:15:39;38.17;;;12.85;;
5819;SDS011;2936;47.348;9.640;2024-01-30T00:18:08;14.65;;;10.43;;
5819;SDS011;2936;47.348;9.640;2024-01-30T00:20:36;17.63;;;10.77;;
5819;SDS011;2936;47.348;9.640;2024-01-30T00:23:03;17.30;;;11.25;;
5819;SDS011;2936;47.348;9.640;2024-01-30T00:25:31;17.08;;;11.45;;
5819;SDS011;2936;47.348;9.640;2024-01-30T00:27:59;22.83;;;10.43;;
5819;SDS011;2936;47.348;9.640;2024-01-30T00:30:27;30.17;;;11.93;;
5819;SDS011;2936;47.348;9.640;2024-01-30T00:32:55;13.95;;;10.40;;
5819;SDS011;2936;47.348;9.640;2024-01-30T00:35:24;41.08;;;12.07;;
5819;SDS011;2936;47.348;9.640;2024-01-30T00:37:52;15.50;;;10.57;;
5819;SDS011;2936;47.348;9.640;2024-01-30T00:40:20;17.90;;;11.00;;
5819;SDS011;2936;47.348;9.640;2024-01-30T00:42:47;18.25;;;11.00;;
5819;SDS011;2936;47.348;9.640;2024-01-30T00:45:16;25.17;;;10.93;;
5819;SDS011;2936;47.348;9.640;2024-01-30T00:47:44;13.15;;;11.07;;
5819;SDS011;2936;47.348;9.640;2024-01-30T00:50:14;21.63;;;12.32;;
5819;SDS011;2936;47.348;9.640;2024-01-30T00:52:43;17.00;;;11.07;;
5819;SDS011;2936;47.348;9.640;2024-01-30T00:55:11;48.00;;;10.95;;
5819;SDS011;2936;47.348;9.640;2024-01-30T00:57:39;18.83;;;11.23;;
5819;SDS011;2936;47.348;9.640;2024-01-30T01:00:07;23.23;;;10.82;;
5819;SDS011;2936;47.348;9.640;2024-01-30T01:02:35;21.08;;;10.57;;
5819;SDS011;2936;47.348;9.640;2024-01-30T01:05:04;10.57;;;9.40;;
5819;SDS011;2936;47.348;9.640;2024-01-30T01:16:54;13.60;;;9.45;;
5819;SDS011;2936;47.348;9.640;2024-01-30T01:19:21;13.48;;;9.88;;
5819;SDS011;2936;47.348;9.640;2024-01-30T01:21:50;15.05;;;10.02;;
5819;SDS011;2936;47.348;9.640;2024-01-30T01:24:18;15.15;;;9.43;;
5819;SDS011;2936;47.348;9.640;2024-01-30T01:26:45;26.17;;;10.40;;
5819;SDS011;2936;47.348;9.640;2024-01-30T01:44:40;20.15;;;9.68;;
5819;SDS011;2936;47.348;9.640;2024-01-30T01:47:07;22.42;;;9.90;;
5819;SDS011;2936;47.348;9.640;2024-01-30T01:49:35;22.63;;;10.60;;
5819;SDS011;2936;47.348;9.640;2024-01-30T01:52:02;17.45;;;9.80;;
5819;SDS011;2936;47.348;9.640;2024-01-30T01:54:30;20.58;;;10.82;;
5819;SDS011;2936;47.348;9.640;2024-01-30T01:56:58;41.92;;;10.10;;
5819;SDS011;2936;47.348;9.640;2024-01-30T01:59:27;16.10;;;10.25;;
5819;SDS011;2936;47.348;9.640;2024-01-30T02:01:58;11.40;;;8.20;;
5819;SDS011;2936;47.348;9.640;2024-01-30T02:04:26;17.90;;;10.50;;
5819;SDS011;2936;47.348;9.640;2024-01-30T02:06:53;17.02;;;8.88;;
5819;SDS011;2936;47.348;9.640;2024-01-30T02:09:21;9.30;;;8.30;;
5819;SDS011;2936;47.348;9.640;2024-01-30T02:11:48;16.58;;;10.20;;
5819;SDS011;2936;47.348;9.640;2024-01-30T02:14:16;18.73;;;10.63;;
5819;SDS011;2936;47.348;9.640;2024-01-30T02:16:44;14.90;;;8.68;;
5819;SDS011;2936;47.348;9.640;2024-01-30T02:19:13;11.30;;;8.85;;
5819;SDS011;2936;47.348;9.640;2024-01-30T02:21:42;32.10;;;8.85;;
5819;SDS011;2936;47.348;9.640;2024-01-30T02:24:10;14.50;;;9.02;;
5819;SDS011;2936;47.348;9.640;2024-01-30T02:26:38;14.82;;;9.43;;
5819;SDS011;2936;47.348;9.640;2024-01-30T02:29:06;12.27;;;9.63;;
5819;SDS011;2936;47.348;9.640;2024-01-30T02:31:34;13.90;;;10.00;;
5819;SDS011;2936;47.348;9.640;2024-01-30T02:34:01;9.45;;;8.43;;
5819;SDS011;2936;47.348;9.640;2024-01-30T02:36:29;17.55;;;11.90;;
5819;SDS011;2936;47.348;9.640;2024-01-30T02:38:58;16.80;;;10.23;;
5819;SDS011;2936;47.348;9.640;2024-01-30T02:41:26;16.50;;;9.38;;
5819;SDS011;2936;47.348;9.640;2024-01-30T02:43:54;15.95;;;10.18;;
5819;SDS011;2936;47.348;9.640;2024-01-30T02:46:22;12.32;;;9.93;;
5819;SDS011;2936;47.348;9.640;2024-01-30T02:48:49;47.35;;;10.98;;
5819;SDS011;2936;47.348;9.640;2024-01-30T02:51:18;25.20;;;10.30;;
5819;SDS011;2936;47.348;9.640;2024-01-30T02:53:46;24.10;;;10.00;;
5819;SDS011;2936;47.348;9.640;2024-01-30T02:56:15;41.35;;;10.70;;
5819;SDS011;2936;47.348;9.640;2024-01-30T02:58:43;12.63;;;8.90;;
5819;SDS011;2936;47.348;9.640;2024-01-30T03:01:11;18.08;;;9.65;;
5819;SDS011;2936;47.348;9.640;2024-01-30T03:03:39;10.27;;;9.07;;
5819;SDS011;2936;47.348;9.640;2024-01-30T03:06:08;17.65;;;9.60;;
5819;SDS011;2936;47.348;9.640;2024-01-30T03:08:35;22.20;;;9.73;;
5819;SDS011;2936;47.348;9.640;2024-01-30T03:11:03;13.82;;;9.38;;
5819;SDS011;2936;47.348;9.640;2024-01-30T03:13:32;17.80;;;9.20;;
5819;SDS011;2936;47.348;9.640;2024-01-30T03:16:00;17.63;;;9.18;;
5819;SDS011;2936;47.348;9.640;2024-01-30T03:18:28;15.80;;;10.43;;
5819;SDS011;2936;47.348;9.640;2024-01-30T03:20:57;26.45;;;9.80;;
5819;SDS011;2936;47.348;9.640;2024-01-30T03:23:24;13.98;;;10.25;;
5819;SDS011;2936;47.348;9.640;2024-01-30T03:25:52;8.60;;;7.75;;
5819;SDS011;2936;47.348;9.640;2024-01-30T03:28:20;39.40;;;11.10;;
5819;SDS011;2936;47.348;9.640;2024-01-30T03:30:49;12.43;;;8.70;;
5819;SDS011;2936;47.348;9.640;2024-01-30T03:33:17;10.73;;;9.52;;
5819;SDS011;2936;47.348;9.640;2024-01-30T03:35:45;36.00;;;10.15;;
5819;SDS011;2936;47.348;9.640;2024-01-30T03:38:12;13.68;;;10.00;;
5819;SDS011;2936;47.348;9.640;2024-01-30T03:40:40;11.65;;;10.43;;
5819;SDS011;2936;47.348;9.640;2024-01-30T03:43:08;15.23;;;10.40;;
5819;SDS011;2936;47.348;9.640;2024-01-30T03:45:36;15.75;;;10.70;;
5819;SDS011;2936;47.348;9.640;2024-01-30T03:48:07;21.42;;;10.60;;
5819;SDS011;2936;47.348;9.640;2024-01-30T03:50:34;18.58;;;12.48;;
5819;SDS011;2936;47.348;9.640;2024-01-30T03:53:02;47.33;;;12.95;;
5819;SDS011;2936;47.348;9.640;2024-01-30T03:55:30;16.63;;;12.30;;
5819;SDS011;2936;47.348;9.640;2024-01-30T03:57:57;27.45;;;13.00;;
5819;SDS011;2936;47.348;9.640;2024-01-30T04:00:25;13.88;;;10.40;;
5819;SDS011;2936;47.348;9.640;2024-01-30T04:02:53;17.27;;;10.32;;
5819;SDS011;2936;47.348;9.640;2024-01-30T04:05:22;14.32;;;9.30;;
5819;SDS011;2936;47.348;9.640;2024-01-30T04:07:50;43.63;;;9.15;;
5819;SDS011;2936;47.348;9.640;2024-01-30T04:10:17;16.05;;;9.00;;
5819;SDS011;2936;47.348;9.640;2024-01-30T04:12:45;9.10;;;8.15;;
5819;SDS011;2936;47.348;9.640;2024-01-30T04:15:13;11.27;;;7.95;;
5819;SDS011;2936;47.348;9.640;2024-01-30T04:17:41;9.88;;;7.70;;
5819;SDS011;2936;47.348;9.640;2024-01-30T04:20:13;12.40;;;9.40;;
5819;SDS011;2936;47.348;9.640;2024-01-30T04:22:43;11.75;;;8.75;;
5819;SDS011;2936;47.348;9.640;2024-01-30T04:25:11;17.40;;;10.00;;
5819;SDS011;2936;47.348;9.640;2024-01-30T04:27:39;12.95;;;8.02;;
5819;SDS011;2936;47.348;9.640;2024-01-30T04:30:07;12.80;;;8.93;;
5819;SDS011;2936;47.348;9.640;2024-01-30T04:32:35;14.20;;;10.15;;
5819;SDS011;2936;47.348;9.640;2024-01-30T04:35:03;10.70;;;8.07;;
5819;SDS011;2936;47.348;9.640;2024-01-30T04:37:31;11.90;;;7.93;;
5819;SDS011;2936;47.348;9.640;2024-01-30T04:40:01;45.45;;;10.25;;
5819;SDS011;2936;47.348;9.640;2024-01-30T04:42:28;13.50;;;9.68;;
5819;SDS011;2936;47.348;9.640;2024-01-30T04:44:59;14.05;;;9.00;;
5819;SDS011;2936;47.348;9.640;2024-01-30T04:47:27;11.02;;;8.40;;
5819;SDS011;2936;47.348;9.640;2024-01-30T04:49:55;11.48;;;9.02;;
5819;SDS011;2936;47.348;9.640;2024-01-30T04:52:23;11.10;;;8.45;;
5819;SDS011;2936;47.348;9.640;2024-01-30T04:54:50;14.15;;;10.15;;
5819;SDS011;2936;47.348;9.640;2024-01-30T04:57:19;10.88;;;9.75;;
5819;SDS011;2936;47.348;9.640;2024-01-30T04:59:47;12.18;;;9.93;;
5819;SDS011;2936;47.348;9.640;2024-01-30T05:02:15;25.88;;;9.48;;
5819;SDS011;2936;47.348;9.640;2024-01-30T05:04:43;10.18;;;9.18;;
5819;SDS011;2936;47.348;9.640;2024-01-30T05:07:11;12.52;;;8.93;;
5819;SDS011;2936;47.348;9.640;2024-01-30T05:09:39;11.38;;;9.30;;
5819;SDS011;2936;47.348;9.640;2024-01-30T05:12:06;11.23;;;8.18;;
5819;SDS011;2936;47.348;9.640;2024-01-30T05:14:35;20.77;;;9.25;;
5819;SDS011;2936;47.348;9.640;2024-01-30T05:17:03;13.75;;;9.70;;
5819;SDS011;2936;47.348;9.640;2024-01-30T05:19:31;10.88;;;9.25;;
5819;SDS011;2936;47.348;9.640;2024-01-30T05:21:58;13.45;;;9.60;;
5819;SDS011;2936;47.348;9.640;2024-01-30T05:24:26;13.68;;;8.93;;
5819;SDS011;2936;47.348;9.640;2024-01-30T05:26:54;20.63;;;9.15;;
5819;SDS011;2936;47.348;9.640;2024-01-30T05:29:22;16.08;;;11.18;;
5819;SDS011;2936;47.348;9.640;2024-01-30T05:31:51;16.67;;;10.82;;
5819;SDS011;2936;47.348;9.640;2024-01-30T05:34:18;14.32;;;9.68;;
5819;SDS011;2936;47.348;9.640;2024-01-30T05:36:46;18.17;;;10.32;;
5819;SDS011;2936;47.348;9.640;2024-01-30T05:39:14;13.63;;;10.55;;
5819;SDS011;2936;47.348;9.640;2024-01-30T05:41:42;11.95;;;9.75;;
5819;SDS011;2936;47.348;9.640;2024-01-30T05:44:12;15.80;;;10.57;;
5819;SDS011;2936;47.348;9.640;2024-01-30T05:46:39;14.30;;;10.65;;
5819;SDS011;2936;47.348;9.640;2024-01-30T05:49:08;17.60;;;10.90;;
5819;SDS011;2936;47.348;9.640;2024-01-30T05:51:36;17.30;;;11.07;;
5819;SDS011;2936;47.348;9.640;2024-01-30T05:54:04;17.13;;;10.88;;
5819;SDS011;2936;47.348;9.640;2024-01-30T05:56:31;17.33;;;10.77;;
5819;SDS011;2936;47.348;9.640;2024-01-30T05:58:59;17.98;;;11.48;;
5819;SDS011;2936;47.348;9.640;2024-01-30T06:01:27;19.90;;;12.68;;
5819;SDS011;2936;47.348;9.640;2024-01-30T06:03:55;16.05;;;12.50;;
5819;SDS011;2936;47.348;9.640;2024-01-30T06:06:24;21.45;;;12.93;;
5819;SDS011;2936;47.348;9.640;2024-01-30T06:08:52;28.15;;;12.70;;
5819;SDS011;2936;47.348;9.640;2024-01-30T06:11:21;19.45;;;13.57;;
5819;SDS011;2936;47.348;9.640;2024-01-30T06:13:48;21.35;;;13.43;;
5819;SDS011;2936;47.348;9.640;2024-01-30T06:16:16;29.05;;;12.85;;
5819;SDS011;2936;47.348;9.640;2024-01-30T06:18:46;21.25;;;13.32;;
5819;SDS011;2936;47.348;9.640;2024-01-30T06:21:13;13.73;;;10.75;;
5819;SDS011;2936;47.348;9.640;2024-01-30T06:23:43;13.60;;;9.88;;
5819;SDS011;2936;47.348;9.640;2024-01-30T06:26:10;14.75;;;10.05;;
5819;SDS011;2936;47.348;9.640;2024-01-30T06:28:38;20.20;;;10.55;;
5819;SDS011;2936;47.348;9.640;2024-01-30T06:31:06;19.02;;;10.35;;
5819;SDS011;2936;47.348;9.640;2024-01-30T06:33:34;43.53;;;11.00;;
5819;SDS011;2936;47.348;9.640;2024-01-30T06:36:02;16.90;;;11.02;;
5819;SDS011;2936;47.348;9.640;2024-01-30T06:38:30;16.13;;;10.40;;
5819;SDS011;2936;47.348;9.640;2024-01-30T06:40:59;17.63;;;10.50;;
5819;SDS011;2936;47.348;9.640;2024-01-30T06:43:27;17.33;;;10.75;;
5819;SDS011;2936;47.348;9.640;2024-01-30T06:45:55;12.32;;;9.45;;
5819;SDS011;2936;47.348;9.640;2024-01-30T06:48:22;16.20;;;10.02;;
5819;SDS011;2936;47.348;9.640;2024-01-30T06:50:52;14.57;;;11.00;;
5819;SDS011;2936;47.348;9.640;2024-01-30T06:53:20;14.10;;;10.70;;
5819;SDS011;2936;47.348;9.640;2024-01-30T06:55:47;11.15;;;9.95;;
5819;SDS011;2936;47.348;9.640;2024-01-30T06:58:16;8.27;;;7.60;;
5819;SDS011;2936;47.348;9.640;2024-01-30T07:00:44;12.07;;;8.68;;
5819;SDS011;2936;47.348;9.640;2024-01-30T07:03:12;11.63;;;6.95;;
5819;SDS011;2936;47.348;9.640;2024-01-30T07:05:40;13.27;;;8.90;;
5819;SDS011;2936;47.348;9.640;2024-01-30T07:08:07;11.32;;;9.95;;
5819;SDS011;2936;47.348;9.640;2024-01-30T07:10:35;15.25;;;10.23;;
5819;SDS011;2936;47.348;9.640;2024-01-30T07:13:03;16.45;;;10.38;;
5819;SDS011;2936;47.348;9.640;2024-01-30T07:15:33;18.05;;;10.88;;
5819;SDS011;2936;47.348;9.640;2024-01-30T07:18:01;21.77;;;10.98;;
5819;SDS011;2936;47.348;9.640;2024-01-30T07:20:29;17.25;;;10.60;;
5819;SDS011;2936;47.348;9.640;2024-01-30T07:22:57;20.55;;;13.35;;
5819;SDS011;2936;47.348;9.640;2024-01-30T07:25:25;24.33;;;12.18;;
5819;SDS011;2936;47.348;9.640;2024-01-30T07:27:55;25.85;;;12.30;;
5819;SDS011;2936;47.348;9.640;2024-01-30T07:30:22;19.42;;;12.50;;
5819;SDS011;2936;47.348;9.640;2024-01-30T07:32:54;19.23;;;11.10;;
5819;SDS011;2936;47.348;9.640;2024-01-30T07:35:22;14.88;;;9.75;;
5819;SDS011;2936;47.348;9.640;2024-01-30T07:37:50;31.20;;;13.05;;
5819;SDS011;2936;47.348;9.640;2024-01-30T07:40:17;37.10;;;12.88;;
5819;SDS011;2936;47.348;9.640;2024-01-30T07:42:45;18.15;;;11.77;;
5819;SDS011;2936;47.348;9.640;2024-01-30T07:45:12;18.05;;;11.77;;
5819;SDS011;2936;47.348;9.640;2024-01-30T07:47:40;24.52;;;11.65;;
5819;SDS011;2936;47.348;9.640;2024-01-30T07:50:10;26.70;;;12.35;;
5819;SDS011;2936;47.348;9.640;2024-01-30T07:52:37;28.45;;;12.68;;
5819;SDS011;2936;47.348;9.640;2024-01-30T07:55:05;34.15;;;12.50;;
5819;SDS011;2936;47.348;9.640;2024-01-30T07:57:33;17.48;;;10.77;;
5819;SDS011;2936;47.348;9.640;2024-01-30T08:00:01;13.70;;;9.20;;
5819;SDS011;2936;47.348;9.640;2024-01-30T08:02:30;16.38;;;10.95;;
5819;SDS011;2936;47.348;9.640;2024-01-30T08:04:58;16.10;;;10.85;;
5819;SDS011;2936;47.348;9.640;2024-01-30T08:07:28;19.45;;;11.27;;
5819;SDS011;2936;47.348;9.640;2024-01-30T08:09:56;17.10;;;10.98;;
5819;SDS011;2936;47.348;9.640;2024-01-30T08:12:24;15.23;;;11.40;;
5819;SDS011;2936;47.348;9.640;2024-01-30T08:14:52;14.35;;;10.68;;
5819;SDS011;2936;47.348;9.640;2024-01-30T08:17:19;13.82;;;9.45;;
5819;SDS011;2936;47.348;9.640;2024-01-30T08:19:48;14.88;;;10.63;;
5819;SDS011;2936;47.348;9.640;2024-01-30T08:22:15;33.28;;;9.65;;
5819;SDS011;2936;47.348;9.640;2024-01-30T08:24:45;23.98;;;10.63;;
5819;SDS011;2936;47.348;9.640;2024-01-30T08:27:12;18.20;;;10.23;;
5819;SDS011;2936;47.348;9.640;2024-01-30T08:29:40;43.13;;;8.77;;
5819;SDS011;2936;47.348;9.640;2024-01-30T08:32:08;19.90;;;11.25;;
5819;SDS011;2936;47.348;9.640;2024-01-30T08:34:35;21.17;;;10.13;;
5819;SDS011;2936;47.348;9.640;2024-01-30T08:37:03;19.90;;;12.52;;
5819;SDS011;2936;47.348;9.640;2024-01-30T08:39:31;12.80;;;9.88;;
5819;SDS011;2936;47.348;9.640;2024-01-30T08:42:00;21.85;;;10.63;;
5819;SDS011;2936;47.348;9.640;2024-01-30T08:44:28;13.98;;;9.80;;
5819;SDS011;2936;47.348;9.640;2024-01-30T08:46:55;15.77;;;9.52;;
5819;SDS011;2936;47.348;9.640;2024-01-30T08:49:23;19.08;;;10.55;;
5819;SDS011;2936;47.348;9.640;2024-01-30T08:51:50;18.60;;;10.80;;
5819;SDS011;2936;47.348;9.640;2024-01-30T08:54:18;23.63;;;11.13;;
5819;SDS011;2936;47.348;9.640;2024-01-30T08:56:46;17.25;;;10.68;;
5819;SDS011;2936;47.348;9.640;2024-01-30T08:59:15;15.93;;;9.98;;
5819;SDS011;2936;47.348;9.640;2024-01-30T09:01:42;19.08;;;10.88;;
5819;SDS011;2936;47.348;9.640;2024-01-30T09:04:12;20.00;;;10.35;;
5819;SDS011;2936;47.348;9.640;2024-01-30T09:06:39;18.45;;;11.57;;
5819;SDS011;2936;47.348;9.640;2024-01-30T09:09:07;17.98;;;11.50;;
5819;SDS011;2936;47.348;9.640;2024-01-30T09:11:35;18.48;;;10.88;;
5819;SDS011;2936;47.348;9.640;2024-01-30T09:14:03;23.63;;;11.73;;
5819;SDS011;2936;47.348;9.640;2024-01-30T09:16:32;32.53;;;10.93;;
5819;SDS011;2936;47.348;9.640;2024-01-30T09:19:00;23.23;;;12.40;;
5819;SDS011;2936;47.348;9.640;2024-01-30T09:21:28;18.30;;;11.90;;
5819;SDS011;2936;47.348;9.640;2024-01-30T09:24:01;16.10;;;10.80;;
5819;SDS011;2936;47.348;9.640;2024-01-30T09:26:32;15.30;;;10.35;;
5819;SDS011;2936;47.348;9.640;2024-01-30T09:29:00;20.85;;;12.73;;
5819;SDS011;2936;47.348;9.640;2024-01-30T09:31:29;15.25;;;9.95;;
5819;SDS011;2936;47.348;9.640;2024-01-30T09:33:58;13.13;;;10.30;;
5819;SDS011;2936;47.348;9.640;2024-01-30T09:36:26;19.60;;;11.27;;
5819;SDS011;2936;47.348;9.640;2024-01-30T09:38:54;14.45;;;10.63;;
5819;SDS011;2936;47.348;9.640;2024-01-30T09:41:22;18.83;;;11.73;;
5819;SDS011;2936;47.348;9.640;2024-01-30T09:43:51;12.77;;;10.68;;
5819;SDS011;2936;47.348;9.640;2024-01-30T09:46:21;13.90;;;10.77;;
5819;SDS011;2936;47.348;9.640;2024-01-30T09:48:51;17.25;;;11.75;;
5819;SDS011;2936;47.348;9.640;2024-01-30T09:51:23;18.02;;;11.48;;
5819;SDS011;2936;47.348;9.640;2024-01-30T09:53:52;18.63;;;11.20;;
5819;SDS011;2936;47.348;9.640;2024-01-30T09:56:21;22.70;;;12.05;;
5819;SDS011;2936;47.348;9.640;2024-01-30T09:58:49;22.42;;;12.00;;
5819;SDS011;2936;47.348;9.640;2024-01-30T10:01:17;20.25;;;13.70;;
5819;SDS011;2936;47.348;9.640;2024-01-30T10:03:46;22.38;;;13.63;;
5819;SDS011;2936;47.348;9.640;2024-01-30T10:06:14;26.00;;;14.02;;
5819;SDS011;2936;47.348;9.640;2024-01-30T10:08:44;20.02;;;14.30;;
5819;SDS011;2936;47.348;9.640;2024-01-30T10:11:11;20.52;;;12.60;;
5819;SDS011;2936;47.348;9.640;2024-01-30T10:13:38;22.42;;;13.80;;
5819;SDS011;2936;47.348;9.640;2024-01-30T10:16:06;24.33;;;15.07;;
5819;SDS011;2936;47.348;9.640;2024-01-30T10:18:34;24.17;;;14.35;;
5819;SDS011;2936;47.348;9.640;2024-01-30T10:21:02;18.67;;;12.88;;
5819;SDS011;2936;47.348;9.640;2024-01-30T10:23:29;19.15;;;13.68;;
5819;SDS011;2936;47.348;9.640;2024-01-30T10:25:59;23.90;;;13.10;;
5819;SDS011;2936;47.348;9.640;2024-01-30T10:28:27;19.58;;;12.45;;
5819;SDS011;2936;47.348;9.640;2024-01-30T10:30:58;17.75;;;13.00;;
5819;SDS011;2936;47.348;9.640;2024-01-30T10:33:26;16.95;;;13.05;;
5819;SDS011;2936;47.348;9.640;2024-01-30T10:35:55;20.13;;;13.15;;
5819;SDS011;2936;47.348;9.640;2024-01-30T10:38:23;20.17;;;13.05;;
5819;SDS011;2936;47.348;9.640;2024-01-30T10:40:52;16.88;;;12.27;;
5819;SDS011;2936;47.348;9.640;2024-01-30T10:43:23;19.08;;;13.00;;
5819;SDS011;2936;47.348;9.640;2024-01-30T10:45:52;17.33;;;12.82;;
5819;SDS011;2936;47.348;9.640;2024-01-30T10:48:21;17.30;;;12.73;;
5819;SDS011;2936;47.348;9.640;2024-01-30T10:50:51;17.52;;;12.55;;
5819;SDS011;2936;47.348;9.640;2024-01-30T10:53:19;22.83;;;15.52;;
5819;SDS011;2936;47.348;9.640;2024-01-30T10:55:47;21.58;;;14.40;;
5819;SDS011;2936;47.348;9.640;2024-01-30T10:58:14;21.35;;;14.20;;
5819;SDS011;2936;47.348;9.640;2024-01-30T11:00:44;24.83;;;13.75;;
5819;SDS011;2936;47.348;9.640;2024-01-30T11:03:12;20.98;;;14.52;;
5819;SDS011;2936;47.348;9.640;2024-01-30T11:05:40;20.85;;;14.70;;
5819;SDS011;2936;47.348;9.640;2024-01-30T11:08:12;26.42;;;16.23;;
5819;SDS011;2936;47.348;9.640;2024-01-30T11:10:46;28.77;;;15.90;;
5819;SDS011;2936;47.348;9.640;2024-01-30T11:13:14;22.70;;;14.18;;
5819;SDS011;2936;47.348;9.640;2024-01-30T11:15:41;24.05;;;16.55;;
5819;SDS011;2936;47.348;9.640;2024-01-30T11:18:11;23.77;;;14.93;;
5819;SDS011;2936;47.348;9.640;2024-01-30T11:20:38;28.10;;;14.75;;
5819;SDS011;2936;47.348;9.640;2024-01-30T11:23:14;23.42;;;14.75;;
5819;SDS011;2936;47.348;9.640;2024-01-30T11:25:43;24.05;;;14.75;;
5819;SDS011;2936;47.348;9.640;2024-01-30T11:28:12;24.83;;;14.65;;
5819;SDS011;2936;47.348;9.640;2024-01-30T11:30:41;18.80;;;14.48;;
5819;SDS011;2936;47.348;9.640;2024-01-30T11:33:10;20.00;;;14.05;;
5819;SDS011;2936;47.348;9.640;2024-01-30T11:35:45;22.73;;;13.63;;
5819;SDS011;2936;47.348;9.640;2024-01-30T11:38:13;15.43;;;11.90;;
5819;SDS011;2936;47.348;9.640;2024-01-30T11:40:41;15.80;;;11.35;;
5819;SDS011;2936;47.348;9.640;2024-01-30T11:43:09;13.30;;;10.25;;
5819;SDS011;2936;47.348;9.640;2024-01-30T11:45:37;13.23;;;10.25;;
5819;SDS011;2936;47.348;9.640;2024-01-30T11:48:06;20.90;;;11.63;;
5819;SDS011;2936;47.348;9.640;2024-01-30T11:50:35;20.65;;;10.25;;
5819;SDS011;2936;47.348;9.640;2024-01-30T11:53:06;13.40;;;9.98;;
5819;SDS011;2936;47.348;9.640;2024-01-30T11:55:34;34.42;;;11.80;;
5819;SDS011;2936;47.348;9.640;2024-01-30T11:58:02;11.45;;;10.15;;
5819;SDS011;2936;47.348;9.640;2024-01-30T12:00:30;14.10;;;9.45;;
5819;SDS011;2936;47.348;9.640;2024-01-30T12:02:58;15.40;;;9.60;;
5819;SDS011;2936;47.348;9.640;2024-01-30T12:05:27;16.65;;;11.13;;
5819;SDS011;2936;47.348;9.640;2024-01-30T12:07:54;9.88;;;8.85;;
5819;SDS011;2936;47.348;9.640;2024-01-30T12:10:25;11.45;;;8.63;;
5819;SDS011;2936;47.348;9.640;2024-01-30T12:12:52;14.98;;;10.65;;
5819;SDS011;2936;47.348;9.640;2024-01-30T12:15:21;9.82;;;8.80;;
5819;SDS011;2936;47.348;9.640;2024-01-30T12:17:49;29.63;;;10.30;;
5819;SDS011;2936;47.348;9.640;2024-01-30T12:20:18;11.73;;;8.95;;
5819;SDS011;2936;47.348;9.640;2024-01-30T12:22:47;12.73;;;9.82;;
5819;SDS011;2936;47.348;9.640;2024-01-30T12:25:15;12.30;;;8.20;;
5819;SDS011;2936;47.348;9.640;2024-01-30T12:27:45;21.33;;;9.25;;
5819;SDS011;2936;47.348;9.640;2024-01-30T12:30:15;12.50;;;8.75;;
5819;SDS011;2936;47.348;9.640;2024-01-30T12:32:43;11.80;;;8.38;;
5819;SDS011;2936;47.348;9.640;2024-01-30T12:35:11;32.38;;;10.02;;
5819;SDS011;2936;47.348;9.640;2024-01-30T12:37:39;10.02;;;8.13;;
5819;SDS011;2936;47.348;9.640;2024-01-30T12:40:07;14.20;;;9.70;;
5819;SDS011;2936;47.348;9.640;2024-01-30T12:42:36;21.23;;;9.73;;
5819;SDS011;2936;47.348;9.640;2024-01-30T12:45:06;14.02;;;9.18;;
5819;SDS011;2936;47.348;9.640;2024-01-30T12:47:34;16.73;;;10.40;;
5819;SDS011;2936;47.348;9.640;2024-01-30T12:50:02;11.55;;;9.15;;
5819;SDS011;2936;47.348;9.640;2024-01-30T12:52:30;13.40;;;9.60;;
5819;SDS011;2936;47.348;9.640;2024-01-30T12:54:57;11.88;;;9.57;;
5819;SDS011;2936;47.348;9.640;2024-01-30T12:57:24;30.73;;;10.48;;
5819;SDS011;2936;47.348;9.640;2024-01-30T12:59:52;12.60;;;9.48;;
5819;SDS011;2936;47.348;9.640;2024-01-30T13:02:21;14.77;;;9.23;;
5819;SDS011;2936;47.348;9.640;2024-01-30T13:04:49;10.75;;;9.70;;
5819;SDS011;2936;47.348;9.640;2024-01-30T13:07:17;14.38;;;9.52;;
5819;SDS011;2936;47.348;9.640;2024-01-30T13:09:45;20.42;;;10.95;;
5819;SDS011;2936;47.348;9.640;2024-01-30T13:12:14;11.10;;;10.00;;
5819;SDS011;2936;47.348;9.640;2024-01-30T13:14:42;22.20;;;10.30;;
5819;SDS011;2936;47.348;9.640;2024-01-30T13:17:09;12.50;;;11.00;;
5819;SDS011;2936;47.348;9.640;2024-01-30T13:19:39;12.32;;;9.63;;
5819;SDS011;2936;47.348;9.640;2024-01-30T13:22:06;18.45;;;16.40;;
5819;SDS011;2936;47.348;9.640;2024-01-30T13:24:34;17.33;;;10.52;;
5819;SDS011;2936;47.348;9.640;2024-01-30T13:27:02;13.00;;;8.77;;
5819;SDS011;2936;47.348;9.640;2024-01-30T13:29:30;14.18;;;10.45;;
5819;SDS011;2936;47.348;9.640;2024-01-30T13:31:58;29.33;;;11.18;;
5819;SDS011;2936;47.348;9.640;2024-01-30T13:34:26;13.50;;;12.05;;
5819;SDS011;2936;47.348;9.640;2024-01-30T13:36:55;63.05;;;15.63;;
5819;SDS011;2936;47.348;9.640;2024-01-30T13:39:23;25.85;;;15.90;;
5819;SDS011;2936;47.348;9.640;2024-01-30T13:41:50;12.25;;;10.98;;
5819;SDS011;2936;47.348;9.640;2024-01-30T13:44:18;9.13;;;8.43;;
5819;SDS011;2936;47.348;9.640;2024-01-30T13:46:46;13.38;;;11.90;;
5819;SDS011;2936;47.348;9.640;2024-01-30T13:49:13;16.70;;;10.68;;
5819;SDS011;2936;47.348;9.640;2024-01-30T13:51:41;13.90;;;9.68;;
5819;SDS011;2936;47.348;9.640;2024-01-30T13:54:10;19.10;;;11.50;;
5819;SDS011;2936;47.348;9.640;2024-01-30T13:56:38;14.02;;;10.10;;
5819;SDS011;2936;47.348;9.640;2024-01-30T13:59:05;11.85;;;10.32;;
5819;SDS011;2936;47.348;9.640;2024-01-30T14:01:33;17.30;;;10.98;;
5819;SDS011;2936;47.348;9.640;2024-01-30T14:04:00;13.65;;;10.77;;
5819;SDS011;2936;47.348;9.640;2024-01-30T14:06:28;15.25;;;10.60;;
5819;SDS011;2936;47.348;9.640;2024-01-30T14:08:55;13.40;;;10.43;;
5819;SDS011;2936;47.348;9.640;2024-01-30T14:11:25;12.57;;;10.52;;
5819;SDS011;2936;47.348;9.640;2024-01-30T14:13:53;13.68;;;10.20;;
5819;SDS011;2936;47.348;9.640;2024-01-30T14:16:20;14.32;;;10.82;;
5819;SDS011;2936;47.348;9.640;2024-01-30T14:18:49;16.83;;;10.10;;
5819;SDS011;2936;47.348;9.640;2024-01-30T14:21:17;15.20;;;11.18;;
5819;SDS011;2936;47.348;9.640;2024-01-30T14:23:45;10.57;;;9.48;;
5819;SDS011;2936;47.348;9.640;2024-01-30T14:26:13;12.00;;;9.23;;
5819;SDS011;2936;47.348;9.640;2024-01-30T14:28:43;14.55;;;9.82;;
5819;SDS011;2936;47.348;9.640;2024-01-30T14:31:11;30.85;;;9.63;;
5819;SDS011;2936;47.348;9.640;2024-01-30T14:33:39;11.80;;;10.43;;
5819;SDS011;2936;47.348;9.640;2024-01-30T14:36:07;12.95;;;9.85;;
5819;SDS011;2936;47.348;9.640;2024-01-30T14:38:35;15.30;;;9.98;;
5819;SDS011;2936;47.348;9.640;2024-01-30T14:41:03;11.32;;;9.93;;
5819;SDS011;2936;47.348;9.640;2024-01-30T14:43:31;11.00;;;9.65;;
5819;SDS011;2936;47.348;9.640;2024-01-30T14:46:00;17.58;;;10.50;;
5819;SDS011;2936;47.348;9.640;2024-01-30T14:48:28;13.45;;;8.70;;
5819;SDS011;2936;47.348;9.640;2024-01-30T14:50:56;14.30;;;9.70;;
5819;SDS011;2936;47.348;9.640;2024-01-30T14:53:24;15.68;;;10.98;;
5819;SDS011;2936;47.348;9.640;2024-01-30T14:55:52;12.18;;;10.25;;
5819;SDS011;2936;47.348;9.640;2024-01-30T14:58:20;9.43;;;8.40;;
5819;SDS011;2936;47.348;9.640;2024-01-30T15:00:47;18.52;;;9.70;;
5819;SDS011;2936;47.348;9.640;2024-01-30T15:03:16;14.32;;;9.07;;
5819;SDS011;2936;47.348;9.640;2024-01-30T15:05:43;17.05;;;10.07;;
5819;SDS011;2936;47.348;9.640;2024-01-30T15:08:11;15.25;;;10.85;;
5819;SDS011;2936;47.348;9.640;2024-01-30T15:10:39;12.57;;;10.63;;
5819;SDS011;2936;47.348;9.640;2024-01-30T15:13:07;10.68;;;8.85;;
5819;SDS011;2936;47.348;9.640;2024-01-30T15:15:34;22.15;;;12.27;;
5819;SDS011;2936;47.348;9.640;2024-01-30T15:18:02;66.75;;;17.20;;
5819;SDS011;2936;47.348;9.640;2024-01-30T15:20:32;15.23;;;11.27;;
5819;SDS011;2936;47.348;9.640;2024-01-30T15:23:00;19.63;;;15.10;;